createdAt,value
2023-06-22T00:02:26.513Z,5.40
2023-06-22T00:04:53.008Z,5.55
2023-06-22T00:07:19.533Z,5.53
2023-06-22T00:09:46.035Z,5.47
2023-06-22T00:12:12.484Z,5.80
2023-06-22T00:14:38.938Z,5.30
2023-06-22T00:17:05.391Z,5.07
2023-06-22T00:19:31.849Z,5.25
2023-06-22T00:22:01.269Z,5.55
2023-06-22T00:24:27.812Z,5.15
2023-06-22T00:26:54.339Z,5.55
2023-06-22T00:29:21.227Z,6.03
2023-06-22T00:31:48.339Z,5.57
2023-06-22T00:34:15.270Z,6.38
2023-06-22T00:36:41.992Z,6.45
2023-06-22T00:39:09.181Z,7.22
2023-06-22T00:41:36.433Z,7.47
2023-06-22T00:44:04.964Z,7.13
2023-06-22T00:46:32.576Z,7.50
2023-06-22T00:49:00.906Z,7.35
2023-06-22T00:51:28.758Z,7.50
2023-06-22T00:53:55.506Z,6.93
2023-06-22T00:56:25.817Z,7.13
2023-06-22T00:58:53.745Z,7.20
2023-06-22T01:01:24.810Z,6.93
2023-06-22T01:03:52.219Z,7.18
2023-06-22T01:06:27.911Z,6.88
2023-06-22T01:09:21.110Z,6.57
2023-06-22T01:12:01.675Z,7.25
2023-06-22T01:14:38.837Z,7.03
2023-06-22T01:17:06.446Z,7.70
2023-06-22T01:19:36.756Z,8.27
2023-06-22T01:22:04.908Z,7.30
2023-06-22T01:24:36.964Z,7.30
2023-06-22T01:27:29.688Z,7.78
2023-06-22T01:30:01.547Z,8.10
2023-06-22T01:32:31.582Z,7.82
2023-06-22T01:35:00.250Z,8.43
2023-06-22T01:37:28.510Z,8.65
2023-06-22T01:39:56.604Z,7.88
2023-06-22T01:42:25.077Z,8.70
2023-06-22T01:44:53.163Z,9.13
2023-06-22T01:47:21.374Z,8.80
2023-06-22T01:49:47.911Z,8.80
2023-06-22T01:52:14.493Z,8.90
2023-06-22T01:54:41.324Z,8.68
2023-06-22T01:57:07.880Z,8.55
2023-06-22T01:59:40.765Z,8.88
2023-06-22T02:02:11.631Z,9.20
2023-06-22T02:04:59.190Z,8.63
2023-06-22T02:07:31.002Z,8.52
2023-06-22T02:09:58.686Z,8.70
2023-06-22T02:12:26.576Z,8.25
2023-06-22T02:14:53.381Z,8.63
2023-06-22T02:17:20.216Z,8.35
2023-06-22T02:19:46.861Z,9.40
2023-06-22T02:22:14.797Z,8.60
2023-06-22T02:24:41.357Z,9.32
2023-06-22T02:27:08.212Z,8.38
2023-06-22T02:29:34.753Z,8.27
2023-06-22T02:32:02.712Z,8.70
2023-06-22T02:34:29.215Z,8.73
2023-06-22T02:36:55.699Z,9.23
2023-06-22T02:39:24.237Z,8.75
2023-06-22T02:41:51.999Z,8.45
2023-06-22T02:44:18.874Z,8.25
2023-06-22T02:46:45.823Z,8.50
2023-06-22T02:49:13.404Z,7.82
2023-06-22T02:51:46.995Z,8.70
2023-06-22T02:54:14.812Z,7.82
2023-06-22T02:56:44.683Z,8.48
2023-06-22T03:01:41.183Z,8.00
2023-06-22T03:04:17.278Z,7.95
2023-06-22T03:06:43.809Z,8.48
2023-06-22T03:09:10.374Z,8.65
2023-06-22T03:11:37.459Z,7.75
2023-06-22T03:14:04.679Z,8.07
2023-06-22T03:16:31.253Z,7.97
2023-06-22T03:18:58.440Z,8.07
2023-06-22T03:21:25.090Z,8.40
2023-06-22T03:23:52.523Z,7.55
2023-06-22T03:26:19.326Z,7.75
2023-06-22T03:28:45.864Z,8.27
2023-06-22T03:31:12.587Z,7.80
2023-06-22T03:33:40.986Z,8.25
2023-06-22T03:36:07.540Z,7.78
2023-06-22T03:38:34.197Z,7.93
2023-06-22T03:41:00.814Z,8.52
2023-06-22T03:43:28.824Z,7.97
2023-06-22T03:45:56.532Z,8.13
2023-06-22T03:48:22.988Z,7.55
2023-06-22T03:50:49.427Z,7.35
2023-06-22T03:53:15.900Z,7.88
2023-06-22T03:55:51.271Z,7.57
2023-06-22T03:58:20.077Z,7.50
2023-06-22T04:00:47.866Z,7.78
2023-06-22T04:03:15.142Z,7.25
2023-06-22T04:05:42.206Z,7.35
2023-06-22T04:08:09.473Z,7.18
2023-06-22T04:10:35.978Z,7.32
2023-06-22T04:13:02.482Z,7.30
2023-06-22T04:15:29.060Z,7.50
2023-06-22T04:17:56.445Z,7.40
2023-06-22T04:20:23.242Z,7.47
2023-06-22T04:22:49.722Z,7.53
2023-06-22T04:25:16.202Z,7.57
2023-06-22T04:27:42.789Z,7.40
2023-06-22T04:30:09.579Z,7.18
2023-06-22T04:32:40.655Z,6.82
2023-06-22T04:35:07.627Z,7.07
2023-06-22T04:37:34.663Z,7.13
2023-06-22T04:40:01.336Z,7.50
2023-06-22T04:42:28.083Z,7.53
2023-06-22T04:44:54.855Z,7.43
2023-06-22T04:47:21.552Z,7.80
2023-06-22T04:49:48.239Z,7.00
2023-06-22T04:52:18.600Z,7.55
2023-06-22T04:54:49.001Z,7.25
2023-06-22T04:57:15.732Z,6.85
2023-06-22T04:59:43.158Z,7.10
2023-06-22T05:02:10.354Z,7.07
2023-06-22T05:04:40.215Z,6.90
2023-06-22T05:07:07.709Z,7.18
2023-06-22T05:09:36.943Z,7.18
2023-06-22T05:12:04.140Z,7.13
2023-06-22T05:14:31.315Z,7.05
2023-06-22T05:16:59.788Z,7.28
2023-06-22T05:19:32.405Z,6.90
2023-06-22T05:21:58.860Z,7.68
2023-06-22T05:29:53.457Z,6.65
2023-06-22T05:35:05.323Z,6.85
2023-06-22T05:37:31.830Z,6.40
2023-06-22T05:39:58.444Z,6.22
2023-06-22T05:42:26.680Z,7.05
2023-06-22T05:44:54.324Z,6.60
2023-06-22T05:47:20.902Z,7.03
2023-06-22T05:49:47.443Z,6.47
2023-06-22T05:52:13.912Z,6.95
2023-06-22T05:54:40.339Z,7.10
2023-06-22T05:57:06.811Z,6.95
2023-06-22T05:59:33.264Z,7.00
2023-06-22T06:01:59.772Z,6.82
2023-06-22T06:04:26.925Z,6.95
2023-06-22T06:06:53.540Z,7.18
2023-06-22T06:09:19.969Z,6.80
2023-06-22T06:11:46.426Z,7.00
2023-06-22T06:14:12.903Z,7.03
2023-06-22T06:16:39.366Z,7.20
2023-06-22T06:19:05.820Z,7.00
2023-06-22T06:21:32.285Z,6.97
2023-06-22T06:23:59.663Z,7.15
2023-06-22T06:26:30.500Z,6.85
2023-06-22T06:28:58.176Z,7.60
2023-06-22T06:31:24.720Z,7.25
2023-06-22T06:33:51.499Z,6.88
2023-06-22T06:36:18.116Z,6.57
2023-06-22T06:38:44.604Z,7.18
2023-06-22T06:41:11.049Z,7.00
2023-06-22T06:43:37.505Z,7.43
2023-06-22T06:46:04.330Z,7.25
2023-06-22T06:48:31.196Z,7.15
2023-06-22T06:50:57.666Z,6.65
2023-06-22T06:53:24.191Z,7.00
2023-06-22T06:55:50.680Z,7.57
2023-06-22T06:58:17.284Z,7.55
2023-06-22T07:00:44.585Z,6.88
2023-06-22T07:03:11.117Z,7.45
2023-06-22T07:05:37.594Z,7.75
2023-06-22T07:08:04.207Z,7.55
2023-06-22T07:10:31.253Z,7.78
2023-06-22T07:12:58.266Z,7.32
2023-06-22T07:15:24.888Z,7.75
2023-06-22T07:17:51.419Z,7.85
2023-06-22T07:20:20.353Z,7.90
2023-06-22T07:22:46.853Z,7.97
2023-06-22T07:25:15.852Z,7.88
2023-06-22T07:27:57.285Z,7.38
2023-06-22T07:30:24.164Z,7.75
2023-06-22T07:32:50.646Z,8.40
2023-06-22T07:35:20.064Z,7.60
2023-06-22T07:37:46.569Z,7.65
2023-06-22T07:40:13.519Z,7.15
2023-06-22T07:42:39.975Z,7.72
2023-06-22T07:45:09.289Z,7.60
2023-06-22T07:47:36.674Z,7.80
2023-06-22T07:50:04.108Z,7.68
2023-06-22T07:52:30.788Z,8.15
2023-06-22T07:54:57.492Z,8.35
2023-06-22T07:57:23.969Z,8.02
2023-06-22T07:59:50.413Z,8.30
2023-06-22T08:02:16.978Z,7.85
2023-06-22T08:04:43.946Z,7.22
2023-06-22T08:07:11.420Z,7.50
2023-06-22T08:09:37.972Z,7.90
2023-06-22T08:12:04.802Z,7.82
2023-06-22T08:14:31.311Z,7.70
2023-06-22T08:16:57.755Z,7.85
2023-06-22T08:19:24.210Z,7.57
2023-06-22T08:21:50.718Z,7.47
2023-06-22T08:24:17.160Z,7.88
2023-06-22T08:26:43.609Z,7.75
2023-06-22T08:29:10.305Z,8.07
2023-06-22T08:31:36.846Z,7.72
2023-06-22T08:34:03.345Z,6.90
2023-06-22T08:36:31.257Z,7.90
2023-06-22T08:39:03.620Z,8.17
2023-06-22T08:41:30.475Z,7.20
2023-06-22T08:43:56.966Z,7.60
2023-06-22T08:46:25.677Z,7.00
2023-06-22T08:51:18.482Z,7.40
2023-06-22T08:53:46.147Z,7.18
2023-06-22T08:56:12.736Z,7.28
2023-06-22T08:58:39.185Z,7.05
2023-06-22T09:01:05.764Z,7.30
2023-06-22T09:06:00.308Z,6.73
2023-06-22T09:08:26.854Z,6.80
2023-06-22T09:10:53.406Z,7.25
2023-06-22T09:13:19.987Z,6.53
2023-06-22T09:15:46.596Z,6.85
2023-06-22T09:18:14.772Z,6.68
2023-06-22T09:20:41.256Z,6.38
2023-06-22T09:23:07.725Z,6.45
2023-06-22T09:25:34.273Z,6.68
2023-06-22T09:28:00.733Z,7.00
2023-06-22T09:30:27.421Z,6.43
2023-06-22T09:32:55.349Z,6.93
2023-06-22T09:35:21.824Z,6.60
2023-06-22T09:37:48.266Z,7.00
2023-06-22T09:40:17.672Z,6.22
2023-06-22T09:42:44.170Z,6.00
2023-06-22T09:45:10.840Z,6.78
2023-06-22T09:47:37.448Z,6.60
2023-06-22T09:50:04.189Z,6.50
2023-06-22T09:52:43.356Z,6.00
2023-06-22T09:55:16.550Z,6.20
2023-06-22T09:57:43.023Z,6.60
2023-06-22T10:00:10.473Z,5.45
2023-06-22T10:02:37.072Z,5.88
2023-06-22T10:05:04.066Z,6.40
2023-06-22T10:07:30.704Z,6.65
2023-06-22T10:09:57.158Z,6.55
2023-06-22T10:12:23.605Z,6.68
2023-06-22T10:14:50.041Z,6.38
2023-06-22T10:17:16.991Z,5.93
2023-06-22T10:19:43.592Z,6.00
2023-06-22T10:22:10.065Z,5.88
2023-06-22T10:24:36.647Z,5.80
2023-06-22T10:27:03.120Z,5.82
2023-06-22T10:29:29.855Z,5.90
2023-06-22T10:31:56.305Z,6.57
2023-06-22T10:34:22.795Z,5.93
2023-06-22T10:36:49.670Z,6.40
2023-06-22T10:39:16.418Z,5.88
2023-06-22T10:41:42.904Z,6.30
2023-06-22T10:44:09.407Z,5.80
2023-06-22T10:46:35.891Z,6.38
2023-06-22T10:49:02.406Z,6.63
2023-06-22T10:51:29.320Z,6.13
2023-06-22T10:53:55.853Z,6.03
2023-06-22T10:56:22.312Z,6.80
2023-06-22T10:58:48.755Z,6.22
2023-06-22T11:01:30.375Z,7.55
2023-06-22T11:04:01.816Z,6.30
2023-06-22T11:06:28.350Z,6.10
2023-06-22T11:09:04.919Z,6.43
2023-06-22T11:11:38.877Z,6.10
2023-06-22T11:14:05.498Z,6.20
2023-06-22T11:16:32.179Z,5.57
2023-06-22T11:18:58.652Z,5.93
2023-06-22T11:21:25.094Z,5.85
2023-06-22T11:23:51.712Z,6.05
2023-06-22T11:26:18.308Z,5.43
2023-06-22T11:28:44.760Z,5.82
2023-06-22T11:31:25.141Z,5.43
2023-06-22T11:33:52.880Z,6.10
2023-06-22T11:36:19.861Z,5.55
2023-06-22T11:38:46.352Z,5.50
2023-06-22T11:41:12.873Z,5.40
2023-06-22T11:43:39.335Z,5.85
2023-06-22T11:46:05.851Z,5.90
2023-06-22T11:48:32.519Z,5.45
2023-06-22T11:51:00.040Z,5.22
2023-06-22T11:53:27.808Z,5.82
2023-06-22T11:55:56.034Z,6.00
2023-06-22T11:58:22.870Z,5.60
2023-06-22T12:00:52.001Z,5.50
2023-06-22T12:03:19.602Z,5.72
2023-06-22T12:05:46.242Z,5.30
2023-06-22T12:08:14.273Z,5.35
2023-06-22T12:10:40.910Z,5.35
2023-06-22T12:13:07.516Z,4.90
2023-06-22T12:15:34.258Z,5.40
2023-06-22T12:18:02.146Z,5.05
2023-06-22T12:20:28.943Z,5.13
2023-06-22T12:22:57.108Z,4.93
2023-06-22T12:25:23.847Z,5.10
2023-06-22T12:27:50.506Z,5.15
2023-06-22T12:30:17.446Z,5.07
2023-06-22T12:32:44.165Z,4.75
2023-06-22T12:35:14.712Z,4.63
2023-06-22T12:37:42.665Z,5.30
2023-06-22T12:40:09.804Z,4.80
2023-06-22T12:42:36.310Z,5.07
2023-06-22T12:45:02.921Z,5.13
2023-06-22T12:47:29.468Z,4.85
2023-06-22T12:49:55.991Z,4.53
2023-06-22T12:52:22.558Z,4.72
2023-06-22T12:54:55.325Z,4.80
2023-06-22T12:57:22.608Z,4.43
2023-06-22T12:59:49.100Z,4.18
2023-06-22T13:02:15.756Z,4.90
2023-06-22T13:04:42.586Z,4.90
2023-06-22T13:07:19.515Z,4.90
2023-06-22T13:09:52.497Z,4.85
2023-06-22T13:12:21.288Z,4.93
2023-06-22T13:14:48.059Z,5.00
2023-06-22T13:17:15.036Z,4.43
2023-06-22T13:19:42.079Z,4.63
2023-06-22T13:22:29.973Z,4.57
2023-06-22T13:24:56.744Z,4.55
2023-06-22T13:27:23.585Z,4.40
2023-06-22T13:35:18.261Z,4.65
2023-06-22T13:40:28.748Z,3.97
2023-06-22T13:45:39.292Z,4.65
2023-06-22T13:50:50.162Z,4.68
2023-06-22T13:53:16.629Z,4.63
2023-06-22T13:55:43.195Z,4.57
2023-06-22T13:58:09.619Z,4.55
2023-06-22T14:00:36.063Z,4.55
2023-06-22T14:03:02.730Z,4.20
2023-06-22T14:05:29.321Z,4.28
2023-06-22T14:07:55.820Z,4.20
2023-06-22T14:10:22.296Z,4.70
2023-06-22T14:12:48.852Z,4.57
2023-06-22T14:15:15.337Z,4.30
2023-06-22T14:17:41.879Z,4.30
2023-06-22T14:20:09.469Z,4.15
2023-06-22T14:22:36.367Z,4.17
2023-06-22T14:25:03.006Z,4.50
2023-06-22T14:27:29.492Z,4.20
2023-06-22T14:29:55.926Z,4.43
2023-06-22T14:32:22.364Z,4.97
2023-06-22T14:34:51.030Z,4.40
2023-06-22T14:37:17.542Z,4.50
2023-06-22T14:39:44.189Z,4.40
2023-06-22T14:42:10.751Z,3.85
2023-06-22T14:44:37.420Z,4.10
2023-06-22T14:47:03.921Z,4.15
2023-06-22T14:49:30.390Z,4.25
2023-06-22T14:51:56.986Z,4.65
2023-06-22T14:54:23.455Z,4.10
2023-06-22T14:56:50.000Z,4.30
2023-06-22T14:59:16.458Z,4.18
2023-06-22T15:01:44.254Z,3.85
2023-06-22T15:04:11.901Z,4.55
2023-06-22T15:06:38.362Z,4.18
2023-06-22T15:09:04.889Z,4.28
2023-06-22T15:11:31.521Z,4.45
2023-06-22T15:14:00.290Z,4.35
2023-06-22T15:16:27.016Z,4.40
2023-06-22T15:18:53.475Z,4.03
2023-06-22T15:21:20.064Z,4.00
2023-06-22T15:23:46.507Z,4.55
2023-06-22T15:26:13.003Z,4.90
2023-06-22T15:28:40.439Z,4.28
2023-06-22T15:31:07.300Z,4.30
2023-06-22T15:33:33.895Z,4.47
2023-06-22T15:36:04.816Z,4.32
2023-06-22T15:38:32.415Z,4.53
2023-06-22T15:40:58.878Z,4.75
2023-06-22T15:43:25.501Z,4.80
2023-06-22T15:45:54.646Z,4.72
2023-06-22T15:48:22.023Z,4.55
2023-06-22T15:50:48.590Z,4.35
2023-06-22T15:53:15.257Z,4.20
2023-06-22T15:55:41.713Z,4.43
2023-06-22T15:58:09.828Z,4.78
2023-06-22T16:00:36.334Z,5.00
2023-06-22T16:03:03.059Z,5.03
2023-06-22T16:05:29.819Z,5.07
2023-06-22T16:07:59.457Z,4.90
2023-06-22T16:10:26.270Z,4.88
2023-06-22T16:12:54.743Z,4.95
2023-06-22T16:17:47.672Z,5.45
2023-06-22T16:20:17.708Z,5.05
2023-06-22T16:22:45.373Z,5.90
2023-06-22T16:25:11.838Z,5.13
2023-06-22T16:27:38.869Z,4.93
2023-06-22T16:30:08.061Z,5.63
2023-06-22T16:32:34.592Z,5.40
2023-06-22T16:35:01.087Z,5.00
2023-06-22T16:37:27.549Z,5.20
2023-06-22T16:39:54.060Z,5.32
2023-06-22T16:42:20.747Z,5.63
2023-06-22T16:44:47.260Z,5.10
2023-06-22T16:47:13.748Z,5.70
2023-06-22T16:49:40.307Z,5.25
2023-06-22T16:52:07.182Z,5.50
2023-06-22T16:54:34.628Z,5.38
2023-06-22T16:57:03.352Z,4.85
2023-06-22T16:59:29.882Z,5.50
2023-06-22T17:01:57.867Z,5.38
2023-06-22T17:04:25.641Z,4.97
2023-06-22T17:06:59.480Z,4.90
2023-06-22T17:09:28.303Z,3.38
2023-06-22T17:11:55.144Z,2.78
2023-06-22T17:14:22.137Z,3.00
2023-06-22T17:16:50.095Z,3.10
2023-06-22T17:19:16.874Z,3.13
2023-06-22T17:21:45.493Z,2.80
2023-06-22T17:24:17.982Z,3.00
2023-06-22T17:26:53.420Z,2.72
2023-06-22T17:29:20.354Z,3.08
2023-06-22T17:31:48.238Z,2.92
2023-06-22T17:34:16.048Z,3.25
2023-06-22T17:36:50.024Z,3.45
2023-06-22T17:39:20.567Z,2.92
2023-06-22T17:41:48.265Z,2.97
2023-06-22T17:44:19.476Z,3.13
2023-06-22T17:46:45.996Z,3.33
2023-06-22T17:49:15.331Z,3.10
2023-06-22T17:51:43.013Z,3.33
2023-06-22T17:54:09.918Z,2.75
2023-06-22T17:56:36.405Z,3.28
2023-06-22T17:59:02.981Z,3.03
2023-06-22T18:01:36.655Z,3.50
2023-06-22T18:04:14.023Z,3.15
2023-06-22T18:06:45.044Z,3.20
2023-06-22T18:09:13.437Z,3.58
2023-06-22T18:11:48.071Z,3.30
2023-06-22T18:14:18.969Z,3.40
2023-06-22T18:16:49.454Z,3.22
2023-06-22T18:19:16.779Z,3.00
2023-06-22T18:21:47.212Z,3.10
2023-06-22T18:24:15.129Z,3.45
2023-06-22T18:26:41.790Z,2.72
2023-06-22T18:29:09.358Z,3.28
2023-06-22T18:31:36.269Z,3.10
2023-06-22T18:34:06.551Z,3.30
2023-06-22T18:36:36.555Z,3.17
2023-06-22T18:39:05.877Z,3.33
2023-06-22T18:41:37.471Z,3.00
2023-06-22T18:44:11.883Z,2.60
2023-06-22T18:46:39.689Z,2.90
2023-06-22T18:49:14.184Z,3.00
2023-06-22T18:52:06.368Z,3.03
2023-06-22T18:54:37.400Z,2.75
2023-06-22T18:57:17.089Z,2.85
2023-06-22T18:59:48.680Z,3.05
2023-06-22T19:02:18.044Z,3.00
2023-06-22T19:04:45.441Z,3.33
2023-06-22T19:07:13.168Z,2.70
2023-06-22T19:09:39.828Z,2.60
2023-06-22T19:12:32.354Z,3.38
2023-06-22T19:15:17.099Z,3.47
2023-06-22T19:17:44.222Z,3.10
2023-06-22T19:20:12.446Z,2.42
2023-06-22T19:22:48.112Z,2.80
2023-06-22T19:25:24.007Z,2.90
2023-06-22T19:27:55.425Z,3.00
2023-06-22T19:30:22.936Z,2.83
2023-06-22T19:32:49.874Z,2.70
2023-06-22T19:35:18.297Z,3.05
2023-06-22T19:37:46.990Z,2.58
2023-06-22T19:40:14.661Z,2.60
2023-06-22T19:42:42.991Z,2.70
2023-06-22T19:45:10.565Z,3.20
2023-06-22T19:47:37.957Z,2.30
2023-06-22T19:50:06.579Z,2.63
2023-06-22T19:52:37.109Z,2.42
2023-06-22T19:55:05.398Z,2.58
2023-06-22T19:57:35.902Z,2.47
2023-06-22T20:00:12.835Z,2.05
2023-06-22T20:02:45.889Z,2.13
2023-06-22T20:05:13.667Z,2.40
2023-06-22T20:07:41.694Z,2.28
2023-06-22T20:10:12.000Z,1.60
2023-06-22T20:12:38.878Z,1.38
2023-06-22T20:15:26.557Z,1.60
2023-06-22T20:17:54.326Z,1.25
2023-06-22T20:20:25.536Z,1.10
2023-06-22T20:22:52.252Z,1.20
2023-06-22T20:25:22.924Z,1.10
2023-06-22T20:27:50.045Z,1.10
2023-06-22T20:30:26.683Z,0.90
2023-06-22T20:32:56.925Z,0.90
2023-06-22T20:35:25.327Z,0.80
2023-06-22T20:37:55.781Z,1.10
2023-06-22T20:40:27.490Z,0.90
2023-06-22T20:42:55.569Z,0.80
2023-06-22T20:45:22.708Z,1.10
2023-06-22T20:47:49.279Z,0.90
2023-06-22T20:50:15.840Z,0.70
2023-06-22T20:52:43.170Z,0.80
2023-06-22T20:55:09.742Z,0.90
2023-06-22T20:57:36.204Z,0.82
2023-06-22T21:00:13.062Z,0.90
2023-06-22T21:02:39.815Z,0.70
2023-06-22T21:05:06.460Z,0.95
2023-06-22T21:07:32.921Z,0.75
2023-06-22T21:09:59.466Z,0.80
2023-06-22T21:12:25.922Z,0.60
2023-06-22T21:14:52.421Z,0.90
2023-06-22T21:17:19.730Z,1.00
2023-06-22T21:19:46.264Z,0.70
2023-06-22T21:22:12.757Z,0.90
2023-06-22T21:24:39.319Z,0.73
2023-06-22T21:27:06.017Z,0.80
2023-06-22T21:29:32.551Z,0.88
2023-06-22T21:31:59.044Z,0.75
2023-06-22T21:34:26.358Z,0.70
2023-06-22T21:36:53.078Z,0.70
2023-06-22T21:39:19.850Z,0.73
2023-06-22T21:41:46.355Z,0.60
2023-06-22T21:44:12.794Z,0.65
2023-06-22T21:46:39.509Z,0.85
2023-06-22T21:49:05.944Z,0.60
2023-06-22T21:51:34.098Z,0.73
2023-06-22T21:54:01.620Z,0.70
2023-06-22T21:56:28.381Z,0.70
2023-06-22T21:58:54.993Z,0.93
2023-06-22T22:01:21.566Z,0.80
2023-06-22T22:03:48.416Z,0.70
2023-06-22T22:06:14.933Z,0.60
2023-06-22T22:08:41.428Z,0.80
2023-06-22T22:11:07.977Z,0.70
2023-06-22T22:13:36.131Z,0.60
2023-06-22T22:16:02.789Z,0.60
2023-06-22T22:18:29.240Z,0.73
2023-06-22T22:20:55.707Z,0.60
2023-06-22T22:23:23.538Z,0.70
2023-06-22T22:25:50.061Z,0.70
2023-06-22T22:28:16.690Z,0.75
2023-06-22T22:30:43.428Z,0.70
2023-06-22T22:33:10.998Z,0.63
2023-06-22T22:35:37.688Z,0.40
2023-06-22T22:38:04.333Z,0.60
2023-06-22T22:40:30.789Z,0.60
2023-06-22T22:42:57.262Z,0.40
2023-06-22T22:45:23.718Z,0.70
2023-06-22T22:47:50.289Z,0.40
2023-06-22T22:50:16.825Z,0.32
2023-06-22T22:52:43.351Z,0.75
2023-06-22T22:55:09.997Z,0.60
2023-06-22T22:57:36.640Z,0.40
2023-06-22T23:00:04.862Z,0.30
2023-06-22T23:02:32.585Z,0.20
2023-06-22T23:05:00.353Z,0.30
2023-06-22T23:07:28.933Z,0.28
2023-06-22T23:09:56.124Z,0.40
2023-06-22T23:12:22.599Z,0.40
2023-06-22T23:14:50.616Z,0.40
2023-06-22T23:17:20.792Z,0.50
2023-06-22T23:19:47.611Z,0.88
2023-06-22T23:22:14.435Z,0.93
2023-06-22T23:24:40.973Z,1.20
2023-06-22T23:27:09.013Z,1.35
2023-06-22T23:29:35.514Z,1.63
2023-06-22T23:32:02.058Z,2.03
2023-06-22T23:34:30.352Z,2.28
2023-06-22T23:36:56.826Z,2.40
2023-06-22T23:39:25.243Z,2.80
2023-06-22T23:41:51.998Z,2.78
2023-06-22T23:44:18.853Z,2.90
2023-06-22T23:46:45.361Z,2.90
2023-06-22T23:49:11.842Z,3.00
2023-06-22T23:51:38.318Z,3.05
2023-06-22T23:54:04.843Z,2.97
2023-06-22T23:56:31.380Z,2.90
2023-06-22T23:58:57.871Z,3.10
